Time;durP1;ratioP1;P1;durP2;ratioP2;P2;SDS_P1;SDS_P2;PMS_P1;PMS_P2;Temp;Humidity;BMP_temperature;BMP_pressure;BME280_temperature;BME280_humidity;BME280_pressure;Samples;Min_cycle;Max_cycle;Signal;HPM_P1;HPM_P2
2022/01/26 00:06:52;;;;;;;9.30;3.80;;;;;;;-14.63;67.42;101092.09;5026509;28;20049;-58
2022/01/26 00:09:26;;;;;;;6.63;3.88;;;;;;;-14.39;67.65;101083.50;5026242;28;20061;-58
2022/01/26 00:11:57;;;;;;;6.25;4.10;;;;;;;-14.90;67.53;100949.88;5026506;28;20297;-59
2022/01/26 00:14:28;;;;;;;5.93;3.80;;;;;;;-14.08;67.36;101081.38;5026386;28;20058;-57
2022/01/26 00:17:01;;;;;;;5.28;3.60;;;;;;;-13.97;67.14;101075.72;5025746;28;20243;-58
2022/01/26 00:19:46;;;;;;;5.88;3.72;;;;;;;-13.95;66.59;101079.28;5024677;28;20093;-57
2022/01/26 00:22:36;;;;;;;8.82;4.80;;;;;;;-13.74;66.86;101070.31;5025098;28;20054;-58
2022/01/26 00:25:22;;;;;;;5.43;4.18;;;;;;;-13.47;66.74;101061.06;5024912;28;20053;-59
2022/01/26 00:27:56;;;;;;;8.48;4.68;;;;;;;-13.49;66.92;101012.25;5025096;28;20073;-59
2022/01/26 00:38:52;;;;;;;10.85;4.40;;;;;;;-12.96;65.19;101055.53;5026041;28;20087;-56
2022/01/26 00:41:33;;;;;;;7.22;4.40;;;;;;;-12.93;64.47;101045.72;5026599;28;20355;-57
2022/01/26 00:44:06;;;;;;;10.18;4.60;;;;;;;-13.01;63.68;101074.34;5026149;28;20058;-58
2022/01/26 00:46:38;;;;;;;8.43;4.20;;;;;;;-12.98;63.99;101044.44;5025942;28;20085;-57
2022/01/26 00:49:10;;;;;;;10.13;4.18;;;;;;;-12.91;63.84;101036.69;5025961;28;20081;-58
2022/01/26 00:51:40;;;;;;;13.45;5.20;;;;;;;-12.65;64.31;101037.38;5025957;28;20156;-57
2022/01/26 00:54:11;;;;;;;14.60;5.72;;;;;;;-12.51;64.17;101035.16;5025905;28;20092;-58
2022/01/26 00:56:42;;;;;;;18.63;7.05;;;;;;;-12.47;64.04;101012.03;5025097;28;20307;-59
2022/01/26 00:59:13;;;;;;;15.68;6.50;;;;;;;-12.41;63.64;101020.97;5025738;28;20323;-58
2022/01/26 01:01:45;;;;;;;17.70;7.15;;;;;;;-12.22;64.26;101015.03;5025755;28;20407;-59
2022/01/26 01:04:17;;;;;;;13.32;6.50;;;;;;;-12.07;64.03;101015.47;5025907;28;20274;-59
2022/01/26 01:06:53;;;;;;;16.95;7.32;;;;;;;-11.78;64.17;101010.31;5025798;28;20340;-58
2022/01/26 01:09:24;;;;;;;16.63;6.28;;;;;;;-11.46;64.12;101000.41;5025567;28;20053;-56
2022/01/26 01:22:18;;;;;;;16.15;6.55;;;;;;;-10.61;62.07;100972.78;5141845;27;20248;-56
2022/01/26 01:30:34;;;;;;;14.88;5.95;;;;;;;-10.18;60.32;100978.66;5116740;28;20047;-58
2022/01/26 01:33:08;;;;;;;11.57;5.38;;;;;;;-10.07;60.31;100972.75;5120831;28;20377;-57
2022/01/26 01:35:42;;;;;;;13.93;6.20;;;;;;;-9.84;60.41;100971.13;5120933;28;20410;-58
2022/01/26 01:38:17;;;;;;;10.00;5.00;;;;;;;-9.70;59.70;100975.56;5121860;28;20055;-57
2022/01/26 01:40:49;;;;;;;10.90;4.78;;;;;;;-9.76;59.02;100980.16;5121538;28;20044;-55
2022/01/26 01:43:22;;;;;;;8.00;4.68;;;;;;;-9.78;59.12;100956.44;5121413;28;20118;-57
2022/01/26 01:45:55;;;;;;;10.13;4.78;;;;;;;-9.52;58.75;100975.19;5121119;28;20075;-56
2022/01/26 01:48:30;;;;;;;8.88;4.70;;;;;;;-10.18;58.47;100892.72;5121343;28;20063;-58
2022/01/26 01:51:05;;;;;;;8.77;4.53;;;;;;;-9.43;58.87;100950.59;5121475;28;20262;-58
2022/01/26 01:53:40;;;;;;;10.27;5.15;;;;;;;-9.10;58.69;100962.31;5121029;28;20059;-57
2022/01/26 01:56:12;;;;;;;6.32;3.72;;;;;;;-8.87;58.36;100956.38;5121294;28;20066;-57
2022/01/26 01:58:43;;;;;;;8.27;3.85;;;;;;;-8.74;57.31;100938.75;5121378;28;20106;-58
2022/01/26 02:01:14;;;;;;;7.32;3.80;;;;;;;-8.53;57.43;100943.59;5121262;28;20743;-57
2022/01/26 02:03:45;;;;;;;9.10;3.85;;;;;;;-8.49;57.58;100925.28;5121836;28;20130;-55
2022/01/26 02:06:16;;;;;;;7.32;4.03;;;;;;;-8.19;56.88;100945.91;5120984;28;20059;-59
2022/01/26 02:08:48;;;;;;;7.40;3.92;;;;;;;-8.15;56.20;100925.06;5121101;28;20056;-58
2022/01/26 02:11:19;;;;;;;4.53;3.28;;;;;;;-8.20;54.67;100918.81;5121092;28;20048;-58
2022/01/26 02:13:58;;;;;;;5.40;3.33;;;;;;;-8.19;55.01;100925.63;5120975;28;20830;-58
2022/01/26 02:16:34;;;;;;;6.05;3.20;;;;;;;-8.22;54.46;100910.22;5120769;28;20047;-57
2022/01/26 02:50:26;;;;;;;9.35;3.33;;;;;;;-6.91;51.12;100871.44;5035344;28;20076;-60
2022/01/26 02:53:16;;;;;;;4.57;3.10;;;;;;;-6.90;51.11;100863.06;5076484;28;20053;-57
2022/01/26 02:55:51;;;;;;;6.10;3.50;;;;;;;-6.84;49.90;100853.28;5076729;28;20053;-57
2022/01/26 02:58:44;;;;;;;6.82;3.63;;;;;;;-6.72;49.85;100854.03;5075575;28;20051;-58
2022/01/26 03:04:16;;;;;;;6.53;3.47;;;;;;;-6.88;48.62;100851.34;5056967;28;20067;-57
2022/01/26 03:06:53;;;;;;;4.90;2.97;;;;;;;-6.82;49.12;100852.59;5074060;28;20135;-55
2022/01/26 03:09:28;;;;;;;4.50;3.10;;;;;;;-6.69;49.84;100849.13;5075919;28;20091;-58
2022/01/26 03:12:02;;;;;;;6.32;4.05;;;;;;;-6.64;49.86;100842.72;5074830;28;20044;-59
2022/01/26 03:14:44;;;;;;;6.68;3.08;;;;;;;-6.62;50.11;100846.19;5074623;28;20111;-59
2022/01/26 03:17:27;;;;;;;5.78;3.40;;;;;;;-6.54;49.94;100834.84;5076204;28;20068;-56
2022/01/26 03:20:04;;;;;;;4.63;2.95;;;;;;;-6.49;49.96;100834.25;5075756;28;20120;-57
2022/01/26 03:28:22;;;;;;;5.05;3.10;;;;;;;-6.35;51.61;100825.78;5073835;28;20087;-58
2022/01/26 03:31:24;;;;;;;5.93;3.42;;;;;;;-6.42;50.27;100808.41;5074892;28;20098;-58
2022/01/26 03:33:58;;;;;;;5.25;3.10;;;;;;;-6.53;50.17;100801.00;5074362;28;20091;-57
2022/01/26 03:36:32;;;;;;;5.47;3.13;;;;;;;-6.53;50.63;100795.94;5073451;28;20115;-57
2022/01/26 03:39:09;;;;;;;4.95;3.10;;;;;;;-6.33;50.97;100796.25;5075296;28;20050;-58
2022/01/26 03:41:43;;;;;;;5.45;3.00;;;;;;;-6.22;50.87;100792.66;5073663;28;20616;-57
2022/01/26 03:44:16;;;;;;;3.95;2.92;;;;;;;-6.35;50.55;100782.56;5074370;28;20056;-58
2022/01/26 03:46:48;;;;;;;5.20;3.25;;;;;;;-6.16;51.21;100787.97;5075125;28;20044;-58
2022/01/26 03:49:19;;;;;;;6.55;3.60;;;;;;;-6.15;50.83;100774.44;5075401;28;20040;-57
2022/01/26 03:51:49;;;;;;;5.20;3.30;;;;;;;-6.01;52.00;100777.81;5074826;28;20082;-57
2022/01/26 03:54:21;;;;;;;5.55;3.45;;;;;;;-5.95;51.12;100777.28;5075127;28;20044;-58
2022/01/26 03:56:51;;;;;;;5.72;3.88;;;;;;;-6.09;51.58;100764.63;5075463;28;20052;-56
2022/01/26 03:59:24;;;;;;;8.35;4.10;;;;;;;-5.95;51.35;100777.28;5075556;28;20330;-56
2022/01/26 04:01:54;;;;;;;6.82;4.13;;;;;;;-6.06;50.88;100763.94;5074986;28;20067;-57
2022/01/26 04:04:25;;;;;;;8.98;4.25;;;;;;;-5.98;52.40;100759.28;5075059;28;20886;-56
2022/01/26 04:06:59;;;;;;;7.68;3.88;;;;;;;-6.04;51.40;100761.47;5075330;28;20119;-57
2022/01/26 04:09:29;;;;;;;7.85;4.20;;;;;;;-5.93;51.68;100765.47;5074814;28;20060;-57
2022/01/26 04:12:00;;;;;;;5.38;3.97;;;;;;;-6.08;51.43;100746.03;5074788;28;20046;-57
2022/01/26 04:14:34;;;;;;;6.50;3.50;;;;;;;-5.98;51.53;100769.47;5075097;28;20366;-58
2022/01/26 04:17:05;;;;;;;7.68;3.97;;;;;;;-5.98;51.24;100761.84;5074487;28;20044;-57
2022/01/26 04:19:38;;;;;;;6.78;3.70;;;;;;;-6.04;51.08;100766.53;5074609;28;20068;-57
2022/01/26 04:22:16;;;;;;;12.35;4.47;;;;;;;-6.00;50.86;100758.31;5074750;28;20055;-56
2022/01/26 04:24:51;;;;;;;7.68;4.30;;;;;;;-6.07;51.08;100742.69;5074951;28;20135;-57
2022/01/26 04:27:30;;;;;;;7.75;4.60;;;;;;;-6.03;49.87;100742.88;5074199;28;20074;-58
2022/01/26 04:30:02;;;;;;;6.88;4.15;;;;;;;-6.05;50.24;100759.72;5074365;28;20441;-57
2022/01/26 04:32:33;;;;;;;8.23;4.72;;;;;;;-6.03;50.09;100747.97;5074385;28;20115;-56
2022/01/26 04:35:04;;;;;;;7.28;4.60;;;;;;;-6.17;49.57;100745.47;5073611;28;20051;-58
2022/01/26 04:37:38;;;;;;;8.27;3.97;;;;;;;-6.13;50.35;100742.34;5073856;28;20467;-56
2022/01/26 04:40:13;;;;;;;6.95;4.18;;;;;;;-6.04;51.77;100746.19;5073806;28;20204;-58
2022/01/26 04:42:50;;;;;;;7.97;4.07;;;;;;;-5.99;52.34;100744.78;5075181;28;20048;-56
2022/01/26 04:45:23;;;;;;;8.80;4.25;;;;;;;-5.92;51.48;100746.88;5076278;28;20102;-56
2022/01/26 04:47:53;;;;;;;6.95;4.10;;;;;;;-5.87;53.29;100740.38;5067458;28;20216;-56
2022/01/26 04:50:24;;;;;;;7.35;4.35;;;;;;;-5.90;51.57;100735.13;5057660;28;20053;-58
2022/01/26 04:52:54;;;;;;;8.60;5.05;;;;;;;-5.92;52.26;100736.69;5058072;28;20302;-56
2022/01/26 04:55:25;;;;;;;9.05;4.80;;;;;;;-5.92;52.17;100731.59;5063697;28;20059;-56
2022/01/26 04:57:56;;;;;;;6.55;4.50;;;;;;;-5.97;51.47;100733.03;5072805;28;20056;-57
2022/01/26 05:00:28;;;;;;;9.18;4.63;;;;;;;-6.04;51.74;100741.09;5072820;28;20123;-59
2022/01/26 05:02:59;;;;;;;7.05;4.15;;;;;;;-6.03;52.37;100742.88;5074047;28;20353;-59
2022/01/26 05:05:30;;;;;;;8.45;4.40;;;;;;;-5.91;54.11;100744.44;5074684;28;20346;-57
2022/01/26 05:08:01;;;;;;;6.93;3.88;;;;;;;-6.00;53.24;100732.88;5074246;28;20052;-57
2022/01/26 05:10:31;;;;;;;6.90;4.30;;;;;;;-5.97;53.18;100739.00;5073736;28;20335;-58
2022/01/26 05:13:02;;;;;;;9.55;4.85;;;;;;;-6.02;53.44;100729.34;5074330;28;20045;-58
2022/01/26 05:15:34;;;;;;;7.57;4.55;;;;;;;-5.89;55.00;100758.13;5074002;28;20110;-59
2022/01/26 05:18:06;;;;;;;7.28;4.18;;;;;;;-5.92;54.54;100751.97;5074018;28;20056;-56
2022/01/26 05:20:37;;;;;;;7.28;4.00;;;;;;;-6.02;53.90;100749.72;5074086;28;20068;-59
2022/01/26 05:23:09;;;;;;;10.98;4.40;;;;;;;-6.10;54.14;100752.69;5073784;28;20343;-58
2022/01/26 05:25:40;;;;;;;6.20;3.80;;;;;;;-6.16;54.52;100752.34;5073600;28;20047;-56
2022/01/26 05:28:11;;;;;;;8.98;4.30;;;;;;;-6.62;54.30;100686.06;5072097;28;20049;-57
2022/01/26 05:30:43;;;;;;;8.95;4.18;;;;;;;-6.27;55.17;100752.50;5072870;28;20107;-57
2022/01/26 05:33:14;;;;;;;7.03;3.88;;;;;;;-6.28;55.49;100751.63;5073593;28;20059;-56
2022/01/26 05:35:44;;;;;;;5.63;3.78;;;;;;;-6.39;55.51;100742.47;5072974;28;20304;-57
2022/01/26 05:38:32;;;;;;;5.32;3.50;;;;;;;-6.37;55.37;100745.97;5072352;28;20338;-58
2022/01/26 05:41:04;;;;;;;6.13;3.90;;;;;;;-6.43;56.40;100748.19;5069733;28;20040;-58
2022/01/26 05:43:35;;;;;;;6.75;3.60;;;;;;;-6.58;56.28;100731.22;5073534;28;20055;-57
2022/01/26 05:46:12;;;;;;;7.63;4.18;;;;;;;-6.56;57.03;100733.88;5072597;28;20060;-57
2022/01/26 05:48:45;;;;;;;7.72;4.13;;;;;;;-6.63;56.91;100742.78;5072061;28;20072;-58
2022/01/26 05:51:16;;;;;;;6.45;4.03;;;;;;;-6.55;57.63;100740.69;5073417;28;20080;-58
2022/01/26 05:53:47;;;;;;;7.70;3.85;;;;;;;-6.67;56.76;100735.75;5073538;28;20270;-58
2022/01/26 05:56:17;;;;;;;6.03;3.75;;;;;;;-6.72;57.15;100726.97;5073309;28;20045;-58
2022/01/26 05:58:48;;;;;;;8.45;4.30;;;;;;;-6.67;56.96;100730.66;5073469;28;20230;-58
2022/01/26 06:01:21;;;;;;;6.30;3.72;;;;;;;-6.61;57.75;100728.50;5072381;28;20056;-56
2022/01/26 06:03:52;;;;;;;6.55;4.00;;;;;;;-6.65;56.89;100724.00;5071719;28;20044;-58
2022/01/26 06:06:23;;;;;;;6.95;3.38;;;;;;;-6.72;56.74;100706.63;5074220;28;20393;-57
2022/01/26 06:08:54;;;;;;;8.73;3.78;;;;;;;-6.68;56.63;100718.75;5076944;28;20273;-58
2022/01/26 06:11:24;;;;;;;6.00;3.65;;;;;;;-6.70;56.35;100715.22;5076914;28;20052;-57
2022/01/26 06:13:56;;;;;;;7.47;3.38;;;;;;;-6.73;56.80;100725.22;5076477;28;20084;-56
2022/01/26 06:16:28;;;;;;;4.82;3.40;;;;;;;-6.82;57.26;100727.19;5076464;28;20242;-61
2022/01/26 06:18:59;;;;;;;7.38;4.35;;;;;;;-6.89;57.28;100732.69;5076872;28;20078;-57
2022/01/26 06:21:29;;;;;;;10.23;5.28;;;;;;;-6.96;58.46;100729.78;5075705;28;20058;-58
2022/01/26 06:24:01;;;;;;;9.30;5.40;;;;;;;-7.09;57.65;100732.34;5073981;28;20094;-58
2022/01/26 06:26:32;;;;;;;11.10;5.00;;;;;;;-7.21;57.97;100739.22;5076268;28;20066;-58
2022/01/26 06:29:02;;;;;;;8.52;4.90;;;;;;;-7.43;58.39;100716.69;5076685;28;20155;-58
2022/01/26 06:31:38;;;;;;;10.75;5.97;;;;;;;-7.46;57.48;100740.22;5076396;28;20064;-59
2022/01/26 06:34:12;;;;;;;17.13;6.68;;;;;;;-7.65;57.25;100739.84;5076407;28;20044;-58
2022/01/26 06:36:43;;;;;;;15.00;6.70;;;;;;;-8.02;57.36;100691.81;5076779;28;20040;-59
2022/01/26 06:39:14;;;;;;;14.82;8.23;;;;;;;-7.90;57.42;100734.84;5076632;28;20087;-58
2022/01/26 06:41:54;;;;;;;20.77;8.50;;;;;;;-7.93;58.25;100738.06;5076335;28;20063;-59
2022/01/26 06:44:29;;;;;;;26.50;10.02;;;;;;;-8.01;58.08;100739.22;5076633;28;20074;-58
2022/01/26 06:47:18;;;;;;;25.42;11.13;;;;;;;-8.17;58.40;100711.09;5075893;28;20358;-57
2022/01/26 06:49:49;;;;;;;26.40;11.40;;;;;;;-8.20;58.34;100736.25;5076125;28;20119;-58
2022/01/26 06:52:20;;;;;;;22.63;10.88;;;;;;;-8.32;58.64;100742.25;5074931;28;20812;-57
2022/01/26 06:54:50;;;;;;;23.83;11.23;;;;;;;-8.38;59.48;100751.13;5076513;28;20056;-58
2022/01/26 06:57:21;;;;;;;27.40;12.10;;;;;;;-8.43;60.12;100758.47;5074933;28;20123;-59
2022/01/26 06:59:52;;;;;;;28.35;11.95;;;;;;;-8.62;59.55;100730.13;5074588;28;20111;-57
2022/01/26 07:02:24;;;;;;;31.83;12.98;;;;;;;-8.62;60.14;100745.31;5076432;28;20112;-57
2022/01/26 07:04:55;;;;;;;38.20;14.18;;;;;;;-8.65;60.60;100752.72;5076254;28;20116;-57
2022/01/26 07:07:26;;;;;;;48.08;17.75;;;;;;;-8.74;60.50;100746.22;5076321;28;20045;-57
2022/01/26 07:09:56;;;;;;;254.70;69.30;;;;;;;-8.83;60.16;100749.81;5075407;28;20113;-58
2022/01/26 07:12:27;;;;;;;171.88;52.08;;;;;;;-9.12;59.25;100747.00;5075961;28;20390;-59
2022/01/26 07:23:23;;;;;;;59.33;23.83;;;;;;;-11.46;65.99;100758.28;5075262;28;20071;-58
2022/01/26 07:25:54;;;;;;;25.98;13.55;;;;;;;-11.49;66.50;100747.97;5075066;28;20098;-57
2022/01/26 07:28:26;;;;;;;22.40;11.50;;;;;;;-11.49;66.92;100747.97;5076658;28;20063;-59
2022/01/26 07:30:57;;;;;;;72.65;32.83;;;;;;;-11.80;67.35;100750.59;5078206;28;20150;-57
2022/01/26 07:33:29;;;;;;;66.78;24.48;;;;;;;-12.16;67.81;100744.38;5078283;28;20476;-58
2022/01/26 07:36:01;;;;;;;151.73;45.00;;;;;;;-12.40;68.07;100755.84;5073002;28;20076;-59
2022/01/26 07:38:32;;;;;;;273.15;84.03;;;;;;;-12.48;68.88;100748.41;5063921;28;20353;-58
2022/01/26 07:41:02;;;;;;;226.60;79.05;;;;;;;-12.55;69.48;100751.16;5071533;28;20053;-59
2022/01/26 07:43:33;;;;;;;42.17;19.73;;;;;;;-12.75;69.52;100752.94;5073657;28;20043;-57
2022/01/26 07:46:06;;;;;;;32.00;12.80;;;;;;;-12.67;70.85;100751.94;5075115;28;20294;-59
2022/01/26 07:48:39;;;;;;;79.97;35.22;;;;;;;-12.66;71.33;100752.81;5074793;28;20056;-59
2022/01/26 07:51:10;;;;;;;49.60;24.20;;;;;;;-12.84;71.93;100758.06;5074160;28;20150;-56
2022/01/26 07:53:41;;;;;;;39.25;19.27;;;;;;;-12.86;72.91;100764.59;5073460;28;20044;-57
2022/01/26 07:56:11;;;;;;;23.05;11.30;;;;;;;-12.82;73.01;100750.66;5073781;28;20168;-56
2022/01/26 07:58:42;;;;;;;21.40;11.30;;;;;;;-12.75;73.48;100757.97;5074374;28;20052;-57
2022/01/26 08:01:13;;;;;;;25.98;12.48;;;;;;;-12.68;73.67;100765.28;5073604;28;20040;-58
2022/01/26 08:03:46;;;;;;;48.38;22.55;;;;;;;-12.63;73.73;100756.47;5073439;28;20138;-55
2022/01/26 08:06:18;;;;;;;38.20;19.63;;;;;;;-12.72;73.68;100769.94;5074536;28;20045;-58
2022/01/26 08:08:48;;;;;;;21.08;10.30;;;;;;;-12.92;73.52;100773.28;5072976;28;20719;-58
2022/01/26 08:11:19;;;;;;;26.02;14.75;;;;;;;-13.00;73.89;100775.16;5054370;28;20089;-57
2022/01/26 08:13:50;;;;;;;32.03;16.98;;;;;;;-13.11;74.46;100780.88;5054483;28;20304;-59
2022/01/26 08:16:21;;;;;;;43.58;26.23;;;;;;;-13.27;74.47;100773.69;5054447;28;20248;-58
2022/01/26 08:18:53;;;;;;;29.88;17.05;;;;;;;-13.31;75.01;100777.56;5053949;28;20065;-59
2022/01/26 08:21:24;;;;;;;27.58;16.77;;;;;;;-13.36;74.88;100780.44;5054107;28;20044;-57
2022/01/26 08:24:02;;;;;;;23.48;14.00;;;;;;;-13.33;75.00;100783.22;5053446;28;20353;-57
2022/01/26 08:26:39;;;;;;;32.95;16.05;;;;;;;-13.29;74.94;100782.75;5036104;28;20059;-57
2022/01/26 08:29:15;;;;;;;39.20;16.95;;;;;;;-13.29;74.82;100787.75;5051921;28;20053;-58
2022/01/26 08:31:46;;;;;;;37.42;17.27;;;;;;;-13.59;74.68;100748.28;5053694;28;20064;-58
2022/01/26 08:34:19;;;;;;;45.33;20.27;;;;;;;-13.65;74.46;100791.38;5053479;28;20071;-59
2022/01/26 08:36:50;;;;;;;27.05;14.25;;;;;;;-13.95;73.75;100782.88;5053327;28;20049;-57
2022/01/26 08:39:20;;;;;;;27.90;12.70;;;;;;;-14.11;74.00;100784.78;5054021;28;20087;-58
2022/01/26 08:41:51;;;;;;;48.97;16.95;;;;;;;-14.12;74.63;100793.06;5052817;28;20059;-59
2022/01/26 08:44:23;;;;;;;96.35;23.30;;;;;;;-14.10;74.86;100786.56;5054147;28;20056;-57
2022/01/26 08:46:54;;;;;;;37.13;14.23;;;;;;;-13.99;75.25;100795.91;5053977;28;20049;-58
2022/01/26 08:49:27;;;;;;;39.58;14.23;;;;;;;-13.97;75.22;100799.44;5053905;28;20060;-57
2022/01/26 08:51:58;;;;;;;43.55;16.42;;;;;;;-14.37;75.42;100740.66;5054332;28;20757;-56
2022/01/26 08:54:29;;;;;;;36.78;17.13;;;;;;;-13.98;75.79;100807.72;5054462;28;20365;-57
2022/01/26 08:57:00;;;;;;;33.58;15.10;;;;;;;-13.97;75.69;100798.56;5054367;28;20087;-56
2022/01/26 08:59:33;;;;;;;33.67;14.55;;;;;;;-14.01;75.59;100801.53;5053736;28;20076;-58
2022/01/26 09:02:04;;;;;;;270.80;78.40;;;;;;;-14.04;75.53;100817.22;5054340;28;20059;-57
2022/01/26 09:04:36;;;;;;;207.63;61.05;;;;;;;-14.07;75.66;100816.97;5053977;28;20259;-57
2022/01/26 09:07:08;;;;;;;28.42;13.65;;;;;;;-14.11;76.07;100812.38;5053609;28;20059;-57
2022/01/26 09:09:44;;;;;;;14.30;8.32;;;;;;;-14.22;76.37;100810.56;5053528;28;20059;-57
2022/01/26 09:12:17;;;;;;;23.65;12.07;;;;;;;-14.29;76.77;100808.25;5051295;28;20048;-58
2022/01/26 09:14:48;;;;;;;35.50;15.30;;;;;;;-14.34;77.26;100813.72;5053344;28;20104;-58
2022/01/26 09:17:20;;;;;;;43.75;17.90;;;;;;;-14.43;77.39;100810.34;5052139;28;20045;-58
2022/01/26 09:19:53;;;;;;;31.75;14.50;;;;;;;-14.50;78.01;100808.06;5052996;28;20345;-56
2022/01/26 09:22:23;;;;;;;26.05;12.55;;;;;;;-14.50;78.63;100812.16;5053696;28;20401;-56
2022/01/26 09:24:54;;;;;;;32.85;12.85;;;;;;;-14.37;78.93;100820.97;5053454;28;20056;-58
2022/01/26 09:27:26;;;;;;;73.18;20.38;;;;;;;-14.29;78.81;100818.28;5053728;28;20056;-58
2022/01/26 09:29:57;;;;;;;23.92;10.73;;;;;;;-14.22;78.67;100818.97;5052461;28;20298;-58
2022/01/26 09:32:27;;;;;;;19.98;7.72;;;;;;;-14.28;78.36;100805.84;5053234;28;20052;-57
2022/01/26 09:35:01;;;;;;;12.57;6.80;;;;;;;-14.16;78.31;100816.13;5053328;28;20057;-57
2022/01/26 09:37:31;;;;;;;10.63;5.82;;;;;;;-14.01;78.19;100821.63;5053689;28;20083;-58
2022/01/26 09:40:02;;;;;;;10.07;6.10;;;;;;;-13.94;78.13;100819.81;5053467;28;20049;-59
2022/01/26 09:42:34;;;;;;;11.43;5.68;;;;;;;-13.91;77.83;100830.13;5055819;28;20052;-58
2022/01/26 09:45:06;;;;;;;28.75;11.57;;;;;;;-14.12;77.36;100803.09;5057408;28;20080;-57
2022/01/26 09:47:37;;;;;;;37.67;15.13;;;;;;;-13.95;77.50;100834.72;5057065;28;20327;-58
2022/01/26 09:50:30;;;;;;;420.17;92.63;;;;;;;-13.86;77.56;100833.03;5055251;28;20094;-57
2022/01/26 09:53:00;;;;;;;344.67;77.20;;;;;;;-13.81;77.22;100825.94;5057009;28;20266;-58
2022/01/26 09:55:32;;;;;;;386.85;96.32;;;;;;;-13.86;76.89;100828.03;5056449;28;20392;-57
2022/01/26 09:58:08;;;;;;;245.32;73.55;;;;;;;-13.95;76.66;100823.06;5056452;28;20052;-56
2022/01/26 10:00:39;;;;;;;119.70;40.20;;;;;;;-13.87;77.17;100830.41;5057232;28;20384;-58
2022/01/26 10:03:10;;;;;;;81.53;32.20;;;;;;;-13.79;77.15;100830.34;5055117;28;20360;-58
2022/01/26 10:05:45;;;;;;;57.30;23.08;;;;;;;-13.92;77.04;100773.09;5057041;28;20087;-58
2022/01/26 10:08:28;;;;;;;21.23;9.95;;;;;;;-13.49;77.10;100817.06;5057186;28;20295;-57
2022/01/26 10:17:19;;;;;;;10.05;5.57;;;;;;;-13.70;75.02;100765.84;5056673;28;20076;-55
2022/01/26 10:19:57;;;;;;;21.17;9.38;;;;;;;-13.14;75.08;100828.41;5056718;28;20075;-57
2022/01/26 10:22:34;;;;;;;19.05;7.85;;;;;;;-13.83;74.90;100689.25;5057192;28;20041;-57
2022/01/26 10:25:11;;;;;;;25.65;11.20;;;;;;;-13.66;74.81;100709.19;5056444;28;20331;-58
2022/01/26 10:28:02;;;;;;;64.25;20.10;;;;;;;-12.84;74.28;100837.69;5056564;28;20045;-57
2022/01/26 10:30:35;;;;;;;249.13;70.22;;;;;;;-12.83;74.10;100840.38;5056257;28;20056;-61
2022/01/26 10:33:09;;;;;;;59.60;22.73;;;;;;;-12.91;73.75;100826.22;5056711;28;20076;-59
2022/01/26 10:35:40;;;;;;;19.65;9.75;;;;;;;-12.96;73.52;100826.59;5056437;28;20381;-58
2022/01/26 10:38:15;;;;;;;16.20;7.88;;;;;;;-13.19;73.65;100800.34;5055942;28;20107;-57
2022/01/26 10:40:46;;;;;;;29.58;10.10;;;;;;;-13.23;73.70;100810.88;5056074;28;20140;-58
2022/01/26 10:43:17;;;;;;;47.42;13.38;;;;;;;-13.51;73.99;100813.53;5055844;28;20053;-57
2022/01/26 10:45:57;;;;;;;23.58;10.13;;;;;;;-13.61;74.28;100810.97;5056190;28;20056;-56
2022/01/26 10:48:37;;;;;;;17.20;7.90;;;;;;;-13.75;74.78;100811.38;5056411;28;20098;-58
2022/01/26 10:56:53;;;;;;;45.70;17.42;;;;;;;-13.69;75.70;100811.94;5056000;28;20269;-59
2022/01/26 10:59:24;;;;;;;33.00;14.50;;;;;;;-13.61;75.70;100816.00;5056084;28;20060;-59
2022/01/26 11:01:59;;;;;;;32.22;18.75;;;;;;;-13.67;75.75;100805.44;5055328;28;20059;-58
2022/01/26 11:04:30;;;;;;;40.10;11.05;;;;;;;-13.64;75.35;100815.75;5056332;28;20080;-59
2022/01/26 11:07:02;;;;;;;12.52;7.30;;;;;;;-13.85;75.58;100818.84;5055017;28;20045;-58
2022/01/26 11:09:38;;;;;;;11.50;7.80;;;;;;;-13.78;75.90;100811.13;5055726;28;20334;-59
2022/01/26 11:12:11;;;;;;;12.70;6.97;;;;;;;-13.84;76.17;100790.50;5055718;28;20347;-59
2022/01/26 11:14:43;;;;;;;132.10;30.00;;;;;;;-13.58;76.64;100806.22;5056219;28;20381;-58
2022/01/26 11:17:26;;;;;;;120.72;28.90;;;;;;;-13.64;76.34;100805.69;5055655;28;20049;-61
2022/01/26 11:19:59;;;;;;;94.10;24.00;;;;;;;-13.58;76.39;100806.22;5055403;28;20434;-58
2022/01/26 11:22:31;;;;;;;153.57;35.08;;;;;;;-13.58;76.46;100808.72;5055888;28;20047;-59
2022/01/26 11:25:13;;;;;;;62.17;17.38;;;;;;;-13.51;76.89;100808.50;5056125;28;20159;-59
2022/01/26 11:27:44;;;;;;;74.90;18.83;;;;;;;-13.54;76.87;100808.25;5054872;28;20076;-59
2022/01/26 11:30:21;;;;;;;106.60;27.55;;;;;;;-13.44;76.84;100809.06;5055640;28;20056;-64
2022/01/26 11:32:57;;;;;;;111.97;29.00;;;;;;;-13.33;76.74;100813.38;5055543;28;20064;-59
2022/01/26 11:35:31;;;;;;;25.23;10.23;;;;;;;-13.14;76.85;100810.81;5055861;28;20061;-59
2022/01/26 11:38:09;;;;;;;16.02;7.07;;;;;;;-12.95;76.95;100823.31;5055909;28;20261;-59
2022/01/26 11:46:39;;;;;;;12.57;6.60;;;;;;;-13.41;75.62;100774.13;4992425;28;20060;-60
2022/01/26 11:49:12;;;;;;;239.13;50.28;;;;;;;-13.25;75.43;100802.34;5030887;28;20060;-59
2022/01/26 11:51:45;;;;;;;347.48;66.82;;;;;;;-13.20;75.97;100811.16;5054584;28;20230;-58
2022/01/26 11:54:17;;;;;;;509.83;98.00;;;;;;;-13.16;75.84;100808.16;5055282;28;20055;-59
2022/01/26 11:57:10;;;;;;;149.85;36.25;;;;;;;-13.21;76.05;100794.28;5055178;28;20053;-60
2022/01/26 11:59:47;;;;;;;79.03;21.35;;;;;;;-13.08;75.96;100812.22;5054994;28;20060;-58
2022/01/26 12:02:29;;;;;;;23.25;9.95;;;;;;;-13.08;75.86;100807.19;5055042;28;20052;-58
2022/01/26 12:05:01;;;;;;;17.10;8.23;;;;;;;-13.12;76.06;100780.00;5054077;28;21025;-58
2022/01/26 12:07:33;;;;;;;21.63;8.07;;;;;;;-12.98;75.85;100818.03;5054967;28;20103;-59
2022/01/26 12:10:04;;;;;;;104.03;33.00;;;;;;;-13.13;75.41;100823.50;5054930;28;20053;-59
2022/01/26 12:12:37;;;;;;;39.28;16.23;;;;;;;-13.30;75.54;100818.69;5054815;28;20224;-59
2022/01/26 12:15:12;;;;;;;28.48;10.35;;;;;;;-13.57;75.65;100817.16;5054179;28;20355;-60
2022/01/26 12:17:58;;;;;;;36.30;16.50;;;;;;;-13.79;76.15;100814.38;5053757;28;20335;-59
2022/01/26 12:34:40;;;;;;;8.25;5.13;;;;;;;-13.95;77.40;100808.00;5051714;28;20041;-58
2022/01/26 12:37:17;;;;;;;9.50;5.05;;;;;;;-13.87;77.57;100805.31;5053499;28;20307;-57
2022/01/26 12:45:56;;;;;;;13.73;5.55;;;;;;;-13.86;77.73;100782.81;5054167;28;20045;-57
2022/01/26 12:48:28;;;;;;;169.25;34.25;;;;;;;-13.70;77.51;100795.13;5054242;28;20160;-59
2022/01/26 12:51:00;;;;;;;36.10;10.65;;;;;;;-13.74;77.38;100783.00;5054353;28;20315;-57
2022/01/26 12:53:35;;;;;;;10.65;5.75;;;;;;;-14.48;77.40;100645.94;5054316;28;20239;-58
2022/01/26 12:56:08;;;;;;;27.13;9.20;;;;;;;-13.68;77.12;100773.50;5054585;28;20057;-58
2022/01/26 12:58:41;;;;;;;129.32;29.48;;;;;;;-13.70;76.80;100780.91;5054154;28;20063;-59
2022/01/26 13:01:17;;;;;;;92.65;25.88;;;;;;;-13.75;76.73;100776.22;5053940;28;20052;-57
2022/01/26 13:03:50;;;;;;;42.08;15.57;;;;;;;-13.74;76.66;100772.97;5053960;28;20063;-57
2022/01/26 13:06:24;;;;;;;28.20;13.02;;;;;;;-13.63;76.70;100772.25;5053801;28;20067;-57
2022/01/26 13:08:56;;;;;;;48.13;18.58;;;;;;;-13.65;76.84;100753.69;5053841;28;20067;-57
2022/01/26 13:11:28;;;;;;;48.83;18.25;;;;;;;-13.34;76.68;100773.91;5053568;28;20041;-58
2022/01/26 13:14:14;;;;;;;44.15;16.52;;;;;;;-13.34;76.20;100776.44;5053596;28;20060;-57
2022/01/26 13:17:06;;;;;;;35.95;13.98;;;;;;;-13.35;75.58;100770.53;5053529;28;20271;-56
2022/01/26 13:19:54;;;;;;;42.00;15.13;;;;;;;-13.42;75.39;100752.28;5053466;28;20080;-58
2022/01/26 13:25:21;;;;;;;31.10;12.48;;;;;;;-13.23;74.08;100790.75;5052060;28;20205;-59
2022/01/26 13:28:11;;;;;;;24.38;9.35;;;;;;;-13.41;73.73;100779.16;5053453;28;20358;-58
2022/01/26 13:31:13;;;;;;;21.60;8.35;;;;;;;-13.19;73.78;100792.81;5053855;28;20029;-58
2022/01/26 13:36:55;;;;;;;14.82;6.70;;;;;;;-13.32;72.29;100792.53;5053915;28;20061;-59
2022/01/26 13:48:35;;;;;;;147.45;36.83;;;;;;;-14.30;72.70;100713.56;5052741;28;20378;-58
2022/01/26 13:51:15;;;;;;;75.18;20.48;;;;;;;-13.93;72.87;100776.34;5053103;28;20067;-58
2022/01/26 13:53:56;;;;;;;;;;;;;;;-13.98;73.21;100786.75;5053580;28;20045;-59